sensor_id;sensor_type;location;lat;lon;timestamp;pressure;altitude;pressure_sealevel;temperature
15079;BMP180;6932;51.438;5.470;2023-02-15T00:01:11;102504.00;;;12.30
15079;BMP180;6932;51.438;5.470;2023-02-15T00:03:37;102498.00;;;12.20
15079;BMP180;6932;51.438;5.470;2023-02-15T00:06:04;102503.00;;;12.20
15079;BMP180;6932;51.438;5.470;2023-02-15T00:08:31;102502.00;;;12.20
15079;BMP180;6932;51.438;5.470;2023-02-15T00:11:12;102498.00;;;12.20
15079;BMP180;6932;51.438;5.470;2023-02-15T00:13:39;102500.00;;;12.10
15079;BMP180;6932;51.438;5.470;2023-02-15T00:16:11;102500.00;;;12.10
15079;BMP180;6932;51.438;5.470;2023-02-15T00:18:41;102497.00;;;12.10
15079;BMP180;6932;51.438;5.470;2023-02-15T00:21:09;102493.00;;;12.10
15079;BMP180;6932;51.438;5.470;2023-02-15T00:23:36;102492.00;;;12.10
15079;BMP180;6932;51.438;5.470;2023-02-15T00:28:30;102492.00;;;12.00
15079;BMP180;6932;51.438;5.470;2023-02-15T00:31:11;102478.00;;;12.00
15079;BMP180;6932;51.438;5.470;2023-02-15T00:33:39;102481.00;;;12.00
15079;BMP180;6932;51.438;5.470;2023-02-15T00:36:09;102480.00;;;12.00
15079;BMP180;6932;51.438;5.470;2023-02-15T00:38:36;102471.00;;;11.90
15079;BMP180;6932;51.438;5.470;2023-02-15T00:41:05;102486.00;;;11.90
15079;BMP180;6932;51.438;5.470;2023-02-15T00:43:33;102485.00;;;11.90
15079;BMP180;6932;51.438;5.470;2023-02-15T00:46:01;102473.00;;;11.80
15079;BMP180;6932;51.438;5.470;2023-02-15T00:48:27;102472.00;;;11.80
15079;BMP180;6932;51.438;5.470;2023-02-15T00:50:57;102464.00;;;11.80
15079;BMP180;6932;51.438;5.470;2023-02-15T00:53:24;102465.00;;;11.80
15079;BMP180;6932;51.438;5.470;2023-02-15T00:55:50;102461.00;;;11.70
15079;BMP180;6932;51.438;5.470;2023-02-15T00:58:16;102464.00;;;11.70
15079;BMP180;6932;51.438;5.470;2023-02-15T01:00:45;102464.00;;;11.70
15079;BMP180;6932;51.438;5.470;2023-02-15T01:03:13;102465.00;;;11.60
15079;BMP180;6932;51.438;5.470;2023-02-15T01:05:40;102456.00;;;11.60
15079;BMP180;6932;51.438;5.470;2023-02-15T01:08:06;102458.00;;;11.60
15079;BMP180;6932;51.438;5.470;2023-02-15T01:10:34;102459.00;;;11.50
15079;BMP180;6932;51.438;5.470;2023-02-15T01:13:00;102449.00;;;11.50
15079;BMP180;6932;51.438;5.470;2023-02-15T01:15:25;102450.00;;;11.50
15079;BMP180;6932;51.438;5.470;2023-02-15T01:17:52;102448.00;;;11.50
15079;BMP180;6932;51.438;5.470;2023-02-15T01:20:25;102444.00;;;11.50
15079;BMP180;6932;51.438;5.470;2023-02-15T01:22:53;102438.00;;;11.40
15079;BMP180;6932;51.438;5.470;2023-02-15T01:25:21;102445.00;;;11.40
15079;BMP180;6932;51.438;5.470;2023-02-15T01:27:48;102429.00;;;11.40
15079;BMP180;6932;51.438;5.470;2023-02-15T01:30:15;102425.00;;;11.40
15079;BMP180;6932;51.438;5.470;2023-02-15T01:32:42;102428.00;;;11.30
15079;BMP180;6932;51.438;5.470;2023-02-15T01:35:09;102421.00;;;11.30
15079;BMP180;6932;51.438;5.470;2023-02-15T01:37:35;102427.00;;;11.30
15079;BMP180;6932;51.438;5.470;2023-02-15T01:40:05;102432.00;;;11.30
15079;BMP180;6932;51.438;5.470;2023-02-15T01:42:33;102426.00;;;11.30
15079;BMP180;6932;51.438;5.470;2023-02-15T01:45:04;102423.00;;;11.30
15079;BMP180;6932;51.438;5.470;2023-02-15T01:47:44;102420.00;;;11.20
15079;BMP180;6932;51.438;5.470;2023-02-15T01:53:31;102410.00;;;11.10
15079;BMP180;6932;51.438;5.470;2023-02-15T01:56:06;102414.00;;;11.10
15079;BMP180;6932;51.438;5.470;2023-02-15T01:58:35;102412.00;;;11.10
15079;BMP180;6932;51.438;5.470;2023-02-15T02:01:04;102420.00;;;11.00
15079;BMP180;6932;51.438;5.470;2023-02-15T02:06:08;102407.00;;;11.00
15079;BMP180;6932;51.438;5.470;2023-02-15T02:08:35;102415.00;;;10.90
15079;BMP180;6932;51.438;5.470;2023-02-15T02:11:01;102416.00;;;10.90
15079;BMP180;6932;51.438;5.470;2023-02-15T02:13:27;102403.00;;;10.90
15079;BMP180;6932;51.438;5.470;2023-02-15T02:16:11;102393.00;;;10.90
15079;BMP180;6932;51.438;5.470;2023-02-15T02:28:13;102391.00;;;10.70
15079;BMP180;6932;51.438;5.470;2023-02-15T02:31:17;102390.00;;;10.70
15079;BMP180;6932;51.438;5.470;2023-02-15T02:39:55;102378.00;;;10.60
15079;BMP180;6932;51.438;5.470;2023-02-15T02:42:44;102378.00;;;10.60
15079;BMP180;6932;51.438;5.470;2023-02-15T02:46:01;102370.00;;;10.50
15079;BMP180;6932;51.438;5.470;2023-02-15T02:48:30;102366.00;;;10.50
15079;BMP180;6932;51.438;5.470;2023-02-15T02:50:58;102366.00;;;10.50
15079;BMP180;6932;51.438;5.470;2023-02-15T02:53:24;102361.00;;;10.50
15079;BMP180;6932;51.438;5.470;2023-02-15T02:56:19;102365.00;;;10.50
15079;BMP180;6932;51.438;5.470;2023-02-15T02:58:56;102364.00;;;10.50
15079;BMP180;6932;51.438;5.470;2023-02-15T03:01:32;102365.00;;;10.50
15079;BMP180;6932;51.438;5.470;2023-02-15T03:04:06;102361.00;;;10.50
15079;BMP180;6932;51.438;5.470;2023-02-15T03:06:42;102367.00;;;10.50
15079;BMP180;6932;51.438;5.470;2023-02-15T03:09:29;102360.00;;;10.40
15079;BMP180;6932;51.438;5.470;2023-02-15T03:12:18;102351.00;;;10.40
15079;BMP180;6932;51.438;5.470;2023-02-15T03:14:51;102355.00;;;10.40
15079;BMP180;6932;51.438;5.470;2023-02-15T03:17:21;102350.00;;;10.40
15079;BMP180;6932;51.438;5.470;2023-02-15T03:19:51;102342.00;;;10.30
15079;BMP180;6932;51.438;5.470;2023-02-15T03:22:28;102347.00;;;10.30
15079;BMP180;6932;51.438;5.470;2023-02-15T03:27:53;102338.00;;;10.20
15079;BMP180;6932;51.438;5.470;2023-02-15T03:30:22;102335.00;;;10.20
15079;BMP180;6932;51.438;5.470;2023-02-15T03:32:50;102343.00;;;10.20
15079;BMP180;6932;51.438;5.470;2023-02-15T03:35:22;102332.00;;;10.20
15079;BMP180;6932;51.438;5.470;2023-02-15T03:37:59;102329.00;;;10.20
15079;BMP180;6932;51.438;5.470;2023-02-15T03:40:36;102324.00;;;10.20
15079;BMP180;6932;51.438;5.470;2023-02-15T03:43:37;102309.00;;;10.10
15079;BMP180;6932;51.438;5.470;2023-02-15T03:47:32;102316.00;;;10.10
15079;BMP180;6932;51.438;5.470;2023-02-15T03:50:00;102319.00;;;10.00
15079;BMP180;6932;51.438;5.470;2023-02-15T03:52:29;102322.00;;;10.00
15079;BMP180;6932;51.438;5.470;2023-02-15T03:54:56;102320.00;;;10.00
15079;BMP180;6932;51.438;5.470;2023-02-15T03:57:27;102315.00;;;10.00
15079;BMP180;6932;51.438;5.470;2023-02-15T04:00:23;102322.00;;;10.00
15079;BMP180;6932;51.438;5.470;2023-02-15T04:05:45;102311.00;;;9.90
15079;BMP180;6932;51.438;5.470;2023-02-15T04:08:12;102312.00;;;9.90
15079;BMP180;6932;51.438;5.470;2023-02-15T04:10:38;102312.00;;;9.80
15079;BMP180;6932;51.438;5.470;2023-02-15T04:13:30;102322.00;;;9.80
15079;BMP180;6932;51.438;5.470;2023-02-15T04:15:57;102319.00;;;9.80
15079;BMP180;6932;51.438;5.470;2023-02-15T04:18:41;102323.00;;;9.80
15079;BMP180;6932;51.438;5.470;2023-02-15T04:21:29;102317.00;;;9.70
15079;BMP180;6932;51.438;5.470;2023-02-15T04:24:15;102315.00;;;9.70
15079;BMP180;6932;51.438;5.470;2023-02-15T04:27:00;102322.00;;;9.70
15079;BMP180;6932;51.438;5.470;2023-02-15T04:29:27;102323.00;;;9.70
15079;BMP180;6932;51.438;5.470;2023-02-15T04:31:55;102302.00;;;9.60
15079;BMP180;6932;51.438;5.470;2023-02-15T04:34:22;102313.00;;;9.60
15079;BMP180;6932;51.438;5.470;2023-02-15T04:36:48;102325.00;;;9.60
15079;BMP180;6932;51.438;5.470;2023-02-15T04:39:15;102319.00;;;9.60
15079;BMP180;6932;51.438;5.470;2023-02-15T04:41:42;102307.00;;;9.60
15079;BMP180;6932;51.438;5.470;2023-02-15T04:44:08;102316.00;;;9.60
15079;BMP180;6932;51.438;5.470;2023-02-15T04:46:34;102315.00;;;9.60
15079;BMP180;6932;51.438;5.470;2023-02-15T04:49:00;102308.00;;;9.60
15079;BMP180;6932;51.438;5.470;2023-02-15T04:51:26;102305.00;;;9.60
15079;BMP180;6932;51.438;5.470;2023-02-15T04:53:52;102310.00;;;9.60
15079;BMP180;6932;51.438;5.470;2023-02-15T04:56:21;102294.00;;;9.50
15079;BMP180;6932;51.438;5.470;2023-02-15T04:58:47;102300.00;;;9.50
15079;BMP180;6932;51.438;5.470;2023-02-15T05:01:13;102298.00;;;9.50
15079;BMP180;6932;51.438;5.470;2023-02-15T05:03:39;102291.00;;;9.50
15079;BMP180;6932;51.438;5.470;2023-02-15T05:06:05;102281.00;;;9.50
15079;BMP180;6932;51.438;5.470;2023-02-15T05:08:31;102286.00;;;9.50
15079;BMP180;6932;51.438;5.470;2023-02-15T05:10:57;102279.00;;;9.40
15079;BMP180;6932;51.438;5.470;2023-02-15T05:13:23;102288.00;;;9.40
15079;BMP180;6932;51.438;5.470;2023-02-15T05:15:51;102288.00;;;9.40
15079;BMP180;6932;51.438;5.470;2023-02-15T05:18:20;102283.00;;;9.40
15079;BMP180;6932;51.438;5.470;2023-02-15T05:20:47;102275.00;;;9.40
15079;BMP180;6932;51.438;5.470;2023-02-15T05:23:13;102278.00;;;9.40
15079;BMP180;6932;51.438;5.470;2023-02-15T05:25:39;102269.00;;;9.30
15079;BMP180;6932;51.438;5.470;2023-02-15T05:28:26;102278.00;;;9.30
15079;BMP180;6932;51.438;5.470;2023-02-15T05:31:07;102289.00;;;9.30
15079;BMP180;6932;51.438;5.470;2023-02-15T05:33:34;102269.00;;;9.30
15079;BMP180;6932;51.438;5.470;2023-02-15T05:36:01;102267.00;;;9.30
15079;BMP180;6932;51.438;5.470;2023-02-15T05:38:27;102271.00;;;9.20
15079;BMP180;6932;51.438;5.470;2023-02-15T05:40:53;102267.00;;;9.20
15079;BMP180;6932;51.438;5.470;2023-02-15T05:43:19;102264.00;;;9.20
15079;BMP180;6932;51.438;5.470;2023-02-15T05:45:50;102263.00;;;9.20
15079;BMP180;6932;51.438;5.470;2023-02-15T05:48:18;102261.00;;;9.20
15079;BMP180;6932;51.438;5.470;2023-02-15T05:50:44;102262.00;;;9.20
15079;BMP180;6932;51.438;5.470;2023-02-15T05:53:10;102276.00;;;9.20
15079;BMP180;6932;51.438;5.470;2023-02-15T05:55:40;102268.00;;;9.10
15079;BMP180;6932;51.438;5.470;2023-02-15T05:58:07;102269.00;;;9.10
15079;BMP180;6932;51.438;5.470;2023-02-15T06:00:34;102273.00;;;9.10
15079;BMP180;6932;51.438;5.470;2023-02-15T06:03:00;102272.00;;;9.10
15079;BMP180;6932;51.438;5.470;2023-02-15T06:05:26;102271.00;;;9.10
15079;BMP180;6932;51.438;5.470;2023-02-15T06:07:51;102283.00;;;9.10
15079;BMP180;6932;51.438;5.470;2023-02-15T06:10:17;102280.00;;;9.00
15079;BMP180;6932;51.438;5.470;2023-02-15T06:12:44;102279.00;;;9.00
15079;BMP180;6932;51.438;5.470;2023-02-15T06:15:10;102271.00;;;9.00
15079;BMP180;6932;51.438;5.470;2023-02-15T06:17:36;102278.00;;;9.00
15079;BMP180;6932;51.438;5.470;2023-02-15T06:20:02;102277.00;;;9.00
15079;BMP180;6932;51.438;5.470;2023-02-15T06:22:28;102279.00;;;9.00
15079;BMP180;6932;51.438;5.470;2023-02-15T06:24:54;102281.00;;;9.00
15079;BMP180;6932;51.438;5.470;2023-02-15T06:27:20;102277.00;;;9.00
15079;BMP180;6932;51.438;5.470;2023-02-15T06:29:45;102272.00;;;8.90
15079;BMP180;6932;51.438;5.470;2023-02-15T06:32:11;102274.00;;;8.90
15079;BMP180;6932;51.438;5.470;2023-02-15T06:34:37;102278.00;;;8.90
15079;BMP180;6932;51.438;5.470;2023-02-15T06:37:03;102277.00;;;8.90
15079;BMP180;6932;51.438;5.470;2023-02-15T06:39:28;102268.00;;;8.90
15079;BMP180;6932;51.438;5.470;2023-02-15T06:41:54;102269.00;;;8.90
15079;BMP180;6932;51.438;5.470;2023-02-15T06:44:20;102272.00;;;8.90
15079;BMP180;6932;51.438;5.470;2023-02-15T06:46:46;102276.00;;;8.90
15079;BMP180;6932;51.438;5.470;2023-02-15T06:49:11;102276.00;;;8.90
15079;BMP180;6932;51.438;5.470;2023-02-15T06:51:37;102273.00;;;8.90
15079;BMP180;6932;51.438;5.470;2023-02-15T06:54:03;102268.00;;;8.80
15079;BMP180;6932;51.438;5.470;2023-02-15T06:56:29;102264.00;;;8.80
15079;BMP180;6932;51.438;5.470;2023-02-15T06:58:55;102260.00;;;8.90
15079;BMP180;6932;51.438;5.470;2023-02-15T07:01:21;102257.00;;;8.80
15079;BMP180;6932;51.438;5.470;2023-02-15T07:03:47;102263.00;;;8.80
15079;BMP180;6932;51.438;5.470;2023-02-15T07:06:12;102250.00;;;8.80
15079;BMP180;6932;51.438;5.470;2023-02-15T07:08:39;102240.00;;;8.80
15079;BMP180;6932;51.438;5.470;2023-02-15T07:11:06;102250.00;;;8.90
15079;BMP180;6932;51.438;5.470;2023-02-15T07:13:51;102246.00;;;8.90
15079;BMP180;6932;51.438;5.470;2023-02-15T07:16:18;102245.00;;;8.90
15079;BMP180;6932;51.438;5.470;2023-02-15T07:18:44;102239.00;;;8.90
15079;BMP180;6932;51.438;5.470;2023-02-15T07:21:10;102247.00;;;9.00
15079;BMP180;6932;51.438;5.470;2023-02-15T07:23:37;102247.00;;;9.00
15079;BMP180;6932;51.438;5.470;2023-02-15T07:26:05;102259.00;;;9.10
15079;BMP180;6932;51.438;5.470;2023-02-15T07:28:35;102249.00;;;9.20
15079;BMP180;6932;51.438;5.470;2023-02-15T07:31:05;102238.00;;;9.20
15079;BMP180;6932;51.438;5.470;2023-02-15T07:33:32;102239.00;;;9.30
15079;BMP180;6932;51.438;5.470;2023-02-15T07:36:00;102246.00;;;9.30
15079;BMP180;6932;51.438;5.470;2023-02-15T07:38:35;102246.00;;;9.40
15079;BMP180;6932;51.438;5.470;2023-02-15T07:41:05;102242.00;;;9.40
15079;BMP180;6932;51.438;5.470;2023-02-15T07:43:35;102237.00;;;9.50
15079;BMP180;6932;51.438;5.470;2023-02-15T07:46:05;102237.00;;;9.60
15079;BMP180;6932;51.438;5.470;2023-02-15T07:48:32;102247.00;;;9.60
15079;BMP180;6932;51.438;5.470;2023-02-15T07:51:03;102244.00;;;9.70
15079;BMP180;6932;51.438;5.470;2023-02-15T07:53:29;102238.00;;;9.80
15079;BMP180;6932;51.438;5.470;2023-02-15T07:56:03;102235.00;;;9.80
15079;BMP180;6932;51.438;5.470;2023-02-15T07:58:29;102233.00;;;9.90
15079;BMP180;6932;51.438;5.470;2023-02-15T08:01:14;102226.00;;;9.90
15079;BMP180;6932;51.438;5.470;2023-02-15T08:03:40;102227.00;;;10.00
15079;BMP180;6932;51.438;5.470;2023-02-15T08:06:07;102242.00;;;10.10
15079;BMP180;6932;51.438;5.470;2023-02-15T08:08:35;102235.00;;;10.10
15079;BMP180;6932;51.438;5.470;2023-02-15T08:11:22;102237.00;;;10.20
15079;BMP180;6932;51.438;5.470;2023-02-15T08:13:57;102224.00;;;10.30
15079;BMP180;6932;51.438;5.470;2023-02-15T08:16:32;102235.00;;;10.50
15079;BMP180;6932;51.438;5.470;2023-02-15T08:19:01;102233.00;;;10.50
15079;BMP180;6932;51.438;5.470;2023-02-15T08:21:29;102235.00;;;10.70
15079;BMP180;6932;51.438;5.470;2023-02-15T08:23:56;102237.00;;;10.80
15079;BMP180;6932;51.438;5.470;2023-02-15T08:26:23;102216.00;;;10.80
15079;BMP180;6932;51.438;5.470;2023-02-15T08:28:51;102226.00;;;10.80
15079;BMP180;6932;51.438;5.470;2023-02-15T08:31:18;102227.00;;;10.90
15079;BMP180;6932;51.438;5.470;2023-02-15T08:33:46;102226.00;;;10.90
15079;BMP180;6932;51.438;5.470;2023-02-15T08:36:17;102229.00;;;11.00
15079;BMP180;6932;51.438;5.470;2023-02-15T08:38:43;102219.00;;;11.10
15079;BMP180;6932;51.438;5.470;2023-02-15T08:41:22;102231.00;;;11.20
15079;BMP180;6932;51.438;5.470;2023-02-15T08:43:52;102222.00;;;11.30
15079;BMP180;6932;51.438;5.470;2023-02-15T08:46:20;102223.00;;;11.40
15079;BMP180;6932;51.438;5.470;2023-02-15T08:48:46;102216.00;;;11.60
15079;BMP180;6932;51.438;5.470;2023-02-15T08:51:14;102218.00;;;11.70
15079;BMP180;6932;51.438;5.470;2023-02-15T08:53:44;102207.00;;;11.80
15079;BMP180;6932;51.438;5.470;2023-02-15T08:56:10;102220.00;;;12.00
15079;BMP180;6932;51.438;5.470;2023-02-15T08:58:37;102216.00;;;12.10
15079;BMP180;6932;51.438;5.470;2023-02-15T09:01:19;102217.00;;;12.30
15079;BMP180;6932;51.438;5.470;2023-02-15T09:03:50;102213.00;;;12.40
15079;BMP180;6932;51.438;5.470;2023-02-15T09:06:21;102213.00;;;12.50
15079;BMP180;6932;51.438;5.470;2023-02-15T09:08:51;102215.00;;;12.60
15079;BMP180;6932;51.438;5.470;2023-02-15T09:11:19;102210.00;;;12.70
15079;BMP180;6932;51.438;5.470;2023-02-15T09:13:58;102208.00;;;12.80
15079;BMP180;6932;51.438;5.470;2023-02-15T09:16:28;102201.00;;;13.00
15079;BMP180;6932;51.438;5.470;2023-02-15T09:18:55;102206.00;;;13.10
15079;BMP180;6932;51.438;5.470;2023-02-15T09:21:25;102208.00;;;13.20
15079;BMP180;6932;51.438;5.470;2023-02-15T09:24:00;102204.00;;;13.30
15079;BMP180;6932;51.438;5.470;2023-02-15T09:26:32;102194.00;;;13.40
15079;BMP180;6932;51.438;5.470;2023-02-15T09:29:01;102198.00;;;13.50
15079;BMP180;6932;51.438;5.470;2023-02-15T09:31:37;102184.00;;;13.60
15079;BMP180;6932;51.438;5.470;2023-02-15T09:34:03;102191.00;;;13.70
15079;BMP180;6932;51.438;5.470;2023-02-15T09:36:35;102189.00;;;13.80
15079;BMP180;6932;51.438;5.470;2023-02-15T09:56:19;102205.00;;;14.60
15079;BMP180;6932;51.438;5.470;2023-02-15T10:01:28;102084.00;;;14.80
15079;BMP180;6932;51.438;5.470;2023-02-15T10:15:56;102112.00;;;14.40
15079;BMP180;6932;51.438;5.470;2023-02-15T10:18:59;102125.00;;;14.50
15079;BMP180;6932;51.438;5.470;2023-02-15T10:21:57;102212.00;;;14.60
15079;BMP180;6932;51.438;5.470;2023-02-15T10:24:59;102208.00;;;14.70
15079;BMP180;6932;51.438;5.470;2023-02-15T10:27:36;102216.00;;;14.90
15079;BMP180;6932;51.438;5.470;2023-02-15T10:30:16;102214.00;;;15.20
15079;BMP180;6932;51.438;5.470;2023-02-15T10:33:14;102214.00;;;15.50
15079;BMP180;6932;51.438;5.470;2023-02-15T10:36:11;102208.00;;;15.70
15079;BMP180;6932;51.438;5.470;2023-02-15T10:45:02;102203.00;;;16.40
15079;BMP180;6932;51.438;5.470;2023-02-15T10:56:41;102185.00;;;17.10
15079;BMP180;6932;51.438;5.470;2023-02-15T10:59:27;102190.00;;;17.20
15079;BMP180;6932;51.438;5.470;2023-02-15T11:08:09;102178.00;;;17.50
15079;BMP180;6932;51.438;5.470;2023-02-15T11:10:59;102181.00;;;17.60
15079;BMP180;6932;51.438;5.470;2023-02-15T11:13:33;102179.00;;;17.70
15079;BMP180;6932;51.438;5.470;2023-02-15T11:18:57;102190.00;;;17.90
15079;BMP180;6932;51.438;5.470;2023-02-15T11:21:37;102184.00;;;17.90
15079;BMP180;6932;51.438;5.470;2023-02-15T11:24:14;102182.00;;;17.90
15079;BMP180;6932;51.438;5.470;2023-02-15T11:26:47;102173.00;;;18.00
15079;BMP180;6932;51.438;5.470;2023-02-15T11:29:38;102175.00;;;18.00
15079;BMP180;6932;51.438;5.470;2023-02-15T11:32:32;102172.00;;;18.00
15079;BMP180;6932;51.438;5.470;2023-02-15T11:37:50;102159.00;;;18.10
15079;BMP180;6932;51.438;5.470;2023-02-15T11:43:04;102141.00;;;18.30
15079;BMP180;6932;51.438;5.470;2023-02-15T11:45:34;102138.00;;;18.40
15079;BMP180;6932;51.438;5.470;2023-02-15T11:48:09;102138.00;;;18.50
15079;BMP180;6932;51.438;5.470;2023-02-15T11:50:36;102137.00;;;18.50
15079;BMP180;6932;51.438;5.470;2023-02-15T11:53:16;102125.00;;;18.60
15079;BMP180;6932;51.438;5.470;2023-02-15T11:55:46;102132.00;;;18.70
15079;BMP180;6932;51.438;5.470;2023-02-15T12:00:58;102108.00;;;18.70
15079;BMP180;6932;51.438;5.470;2023-02-15T12:06:36;102116.00;;;18.80
15079;BMP180;6932;51.438;5.470;2023-02-15T12:14:53;102115.00;;;18.90
15079;BMP180;6932;51.438;5.470;2023-02-15T12:17:24;102119.00;;;18.90
15079;BMP180;6932;51.438;5.470;2023-02-15T12:19:52;102106.00;;;19.00
15079;BMP180;6932;51.438;5.470;2023-02-15T12:22:23;102110.00;;;19.00
15079;BMP180;6932;51.438;5.470;2023-02-15T12:24:54;102105.00;;;19.00
15079;BMP180;6932;51.438;5.470;2023-02-15T12:27:29;102011.00;;;19.10
15079;BMP180;6932;51.438;5.470;2023-02-15T12:30:06;102016.00;;;19.10
15079;BMP180;6932;51.438;5.470;2023-02-15T12:35:27;102014.00;;;19.00
15079;BMP180;6932;51.438;5.470;2023-02-15T12:38:05;101994.00;;;19.00
15079;BMP180;6932;51.438;5.470;2023-02-15T12:40:33;101998.00;;;19.00
15079;BMP180;6932;51.438;5.470;2023-02-15T12:42:59;101987.00;;;18.90
15079;BMP180;6932;51.438;5.470;2023-02-15T12:45:31;101999.00;;;18.80
15079;BMP180;6932;51.438;5.470;2023-02-15T12:50:44;101988.00;;;18.80
15079;BMP180;6932;51.438;5.470;2023-02-15T12:53:32;101985.00;;;18.70
15079;BMP180;6932;51.438;5.470;2023-02-15T12:56:02;102069.00;;;18.60
15079;BMP180;6932;51.438;5.470;2023-02-15T12:58:37;102074.00;;;18.60
15079;BMP180;6932;51.438;5.470;2023-02-15T13:03:59;102072.00;;;18.70
15079;BMP180;6932;51.438;5.470;2023-02-15T13:06:29;102064.00;;;18.70
15079;BMP180;6932;51.438;5.470;2023-02-15T13:12:18;102058.00;;;18.80
15079;BMP180;6932;51.438;5.470;2023-02-15T13:14:48;102064.00;;;18.80
15079;BMP180;6932;51.438;5.470;2023-02-15T13:17:23;102052.00;;;18.90
15079;BMP180;6932;51.438;5.470;2023-02-15T13:19:52;102055.00;;;18.90
15079;BMP180;6932;51.438;5.470;2023-02-15T13:22:33;102054.00;;;18.90
15079;BMP180;6932;51.438;5.470;2023-02-15T13:25:12;102052.00;;;19.00
15079;BMP180;6932;51.438;5.470;2023-02-15T13:27:42;102050.00;;;19.00
15079;BMP180;6932;51.438;5.470;2023-02-15T13:30:32;102050.00;;;19.00
15079;BMP180;6932;51.438;5.470;2023-02-15T13:33:22;102046.00;;;18.90
15079;BMP180;6932;51.438;5.470;2023-02-15T13:36:21;102041.00;;;18.90
15079;BMP180;6932;51.438;5.470;2023-02-15T13:41:33;102044.00;;;18.80
15079;BMP180;6932;51.438;5.470;2023-02-15T13:44:53;102039.00;;;18.70
15079;BMP180;6932;51.438;5.470;2023-02-15T13:47:49;102042.00;;;18.70
15079;BMP180;6932;51.438;5.470;2023-02-15T13:53:50;102038.00;;;18.70
15079;BMP180;6932;51.438;5.470;2023-02-15T13:57:15;102029.00;;;18.60
15079;BMP180;6932;51.438;5.470;2023-02-15T14:11:40;102034.00;;;18.50
15079;BMP180;6932;51.438;5.470;2023-02-15T14:14:56;102032.00;;;18.50
15079;BMP180;6932;51.438;5.470;2023-02-15T14:17:42;102036.00;;;18.40
15079;BMP180;6932;51.438;5.470;2023-02-15T14:29:33;102048.00;;;18.40
15079;BMP180;6932;51.438;5.470;2023-02-15T14:32:40;102054.00;;;18.40
15079;BMP180;6932;51.438;5.470;2023-02-15T14:35:17;102051.00;;;18.40
15079;BMP180;6932;51.438;5.470;2023-02-15T14:37:54;102059.00;;;18.40
15079;BMP180;6932;51.438;5.470;2023-02-15T14:46:50;102065.00;;;18.30
15079;BMP180;6932;51.438;5.470;2023-02-15T14:49:27;102054.00;;;18.30
15079;BMP180;6932;51.438;5.470;2023-02-15T14:52:09;102055.00;;;18.30
15079;BMP180;6932;51.438;5.470;2023-02-15T14:59:56;102059.00;;;18.20
15079;BMP180;6932;51.438;5.470;2023-02-15T15:02:43;102060.00;;;18.20
15079;BMP180;6932;51.438;5.470;2023-02-15T15:05:35;102053.00;;;18.20
15079;BMP180;6932;51.438;5.470;2023-02-15T15:08:39;102053.00;;;18.10
15079;BMP180;6932;51.438;5.470;2023-02-15T15:14:01;102048.00;;;18.00
15079;BMP180;6932;51.438;5.470;2023-02-15T15:19:09;102052.00;;;18.00
15079;BMP180;6932;51.438;5.470;2023-02-15T15:21:55;102056.00;;;17.90
15079;BMP180;6932;51.438;5.470;2023-02-15T15:27:46;102047.00;;;17.90
15079;BMP180;6932;51.438;5.470;2023-02-15T15:33:00;102049.00;;;17.80
15079;BMP180;6932;51.438;5.470;2023-02-15T15:42:30;102050.00;;;17.70
15079;BMP180;6932;51.438;5.470;2023-02-15T15:50:19;102041.00;;;17.60
15079;BMP180;6932;51.438;5.470;2023-02-15T15:52:53;102047.00;;;17.60
15079;BMP180;6932;51.438;5.470;2023-02-15T15:55:25;102050.00;;;17.60
15079;BMP180;6932;51.438;5.470;2023-02-15T15:58:01;102042.00;;;17.60
15079;BMP180;6932;51.438;5.470;2023-02-15T16:00:51;102043.00;;;17.50
15079;BMP180;6932;51.438;5.470;2023-02-15T16:03:24;102043.00;;;17.50
15079;BMP180;6932;51.438;5.470;2023-02-15T16:05:51;102042.00;;;17.50
15079;BMP180;6932;51.438;5.470;2023-02-15T16:10:53;102041.00;;;17.40
15079;BMP180;6932;51.438;5.470;2023-02-15T16:13:20;102026.00;;;17.40
15079;BMP180;6932;51.438;5.470;2023-02-15T16:15:50;102034.00;;;17.40
15079;BMP180;6932;51.438;5.470;2023-02-15T16:18:22;102037.00;;;17.40
15079;BMP180;6932;51.438;5.470;2023-02-15T16:21:00;102032.00;;;17.40
15079;BMP180;6932;51.438;5.470;2023-02-15T16:26:07;102034.00;;;17.30
15079;BMP180;6932;51.438;5.470;2023-02-15T16:28:37;102042.00;;;17.30
15079;BMP180;6932;51.438;5.470;2023-02-15T16:31:15;102033.00;;;17.20
15079;BMP180;6932;51.438;5.470;2023-02-15T16:33:43;102032.00;;;17.20
15079;BMP180;6932;51.438;5.470;2023-02-15T16:36:30;102041.00;;;17.20
15079;BMP180;6932;51.438;5.470;2023-02-15T16:41:26;102029.00;;;17.10
15079;BMP180;6932;51.438;5.470;2023-02-15T16:43:55;102036.00;;;17.10
15079;BMP180;6932;51.438;5.470;2023-02-15T16:46:28;102038.00;;;17.10
15079;BMP180;6932;51.438;5.470;2023-02-15T16:49:02;102042.00;;;17.00
15079;BMP180;6932;51.438;5.470;2023-02-15T16:51:32;101949.00;;;17.00
15079;BMP180;6932;51.438;5.470;2023-02-15T16:54:07;101950.00;;;17.00
15079;BMP180;6932;51.438;5.470;2023-02-15T16:56:34;101958.00;;;16.80
15079;BMP180;6932;51.438;5.470;2023-02-15T16:59:02;101953.00;;;16.60
15079;BMP180;6932;51.438;5.470;2023-02-15T17:01:31;101970.00;;;16.40
15079;BMP180;6932;51.438;5.470;2023-02-15T17:07:06;101954.00;;;16.20
15079;BMP180;6932;51.438;5.470;2023-02-15T17:09:57;102050.00;;;16.00
15079;BMP180;6932;51.438;5.470;2023-02-15T17:12:53;102049.00;;;16.00
15079;BMP180;6932;51.438;5.470;2023-02-15T17:15:36;102045.00;;;16.00
15079;BMP180;6932;51.438;5.470;2023-02-15T17:18:22;102043.00;;;16.10
15079;BMP180;6932;51.438;5.470;2023-02-15T17:20:52;102046.00;;;16.10
15079;BMP180;6932;51.438;5.470;2023-02-15T17:23:41;102042.00;;;16.10
15079;BMP180;6932;51.438;5.470;2023-02-15T17:26:29;102046.00;;;16.10
15079;BMP180;6932;51.438;5.470;2023-02-15T17:28:59;102052.00;;;16.20
15079;BMP180;6932;51.438;5.470;2023-02-15T17:31:32;102052.00;;;16.20
15079;BMP180;6932;51.438;5.470;2023-02-15T17:34:00;102049.00;;;16.20
15079;BMP180;6932;51.438;5.470;2023-02-15T17:36:31;102052.00;;;16.20
15079;BMP180;6932;51.438;5.470;2023-02-15T17:41:28;102048.00;;;16.20
15079;BMP180;6932;51.438;5.470;2023-02-15T17:43:55;102035.00;;;16.10
15079;BMP180;6932;51.438;5.470;2023-02-15T17:46:21;102036.00;;;16.10
15079;BMP180;6932;51.438;5.470;2023-02-15T17:48:51;102046.00;;;16.10
15079;BMP180;6932;51.438;5.470;2023-02-15T17:51:19;102042.00;;;16.10
15079;BMP180;6932;51.438;5.470;2023-02-15T17:53:45;102045.00;;;16.00
15079;BMP180;6932;51.438;5.470;2023-02-15T17:56:33;102040.00;;;16.00